sensor_id;sensor_type;location;lat;lon;timestamp;temperature;humidity
31809;DHT22;18379;48.208;-1.518;2023-08-01T00:04:52;17.50;99.90
31809;DHT22;18379;48.208;-1.518;2023-08-01T00:09:53;17.40;99.90
31809;DHT22;18379;48.208;-1.518;2023-08-01T00:14:54;17.40;99.90
31809;DHT22;18379;48.208;-1.518;2023-08-01T00:19:55;17.30;99.90
31809;DHT22;18379;48.208;-1.518;2023-08-01T00:24:56;17.30;99.90
31809;DHT22;18379;48.208;-1.518;2023-08-01T00:29:57;17.30;99.90
31809;DHT22;18379;48.208;-1.518;2023-08-01T00:34:57;17.30;99.90
31809;DHT22;18379;48.208;-1.518;2023-08-01T00:39:58;17.30;99.90
31809;DHT22;18379;48.208;-1.518;2023-08-01T00:44:59;17.30;99.90
31809;DHT22;18379;48.208;-1.518;2023-08-01T00:50:01;17.40;99.90
31809;DHT22;18379;48.208;-1.518;2023-08-01T00:55:03;17.30;99.90
31809;DHT22;18379;48.208;-1.518;2023-08-01T01:00:04;17.40;99.90
31809;DHT22;18379;48.208;-1.518;2023-08-01T01:05:05;17.30;99.90
31809;DHT22;18379;48.208;-1.518;2023-08-01T01:10:07;17.30;99.90
31809;DHT22;18379;48.208;-1.518;2023-08-01T01:15:08;17.30;99.90
31809;DHT22;18379;48.208;-1.518;2023-08-01T01:20:09;17.20;99.90
31809;DHT22;18379;48.208;-1.518;2023-08-01T01:25:11;17.30;99.90
31809;DHT22;18379;48.208;-1.518;2023-08-01T01:30:13;17.20;99.90
31809;DHT22;18379;48.208;-1.518;2023-08-01T01:35:14;17.30;99.90
31809;DHT22;18379;48.208;-1.518;2023-08-01T01:40:15;17.20;99.90
31809;DHT22;18379;48.208;-1.518;2023-08-01T01:45:16;17.20;99.90
31809;DHT22;18379;48.208;-1.518;2023-08-01T01:50:17;17.10;99.90
31809;DHT22;18379;48.208;-1.518;2023-08-01T01:55:18;17.10;99.90
31809;DHT22;18379;48.208;-1.518;2023-08-01T02:00:19;17.10;99.90
31809;DHT22;18379;48.208;-1.518;2023-08-01T02:05:19;17.00;99.90
31809;DHT22;18379;48.208;-1.518;2023-08-01T02:10:20;16.90;99.90
31809;DHT22;18379;48.208;-1.518;2023-08-01T02:15:21;16.70;99.90
31809;DHT22;18379;48.208;-1.518;2023-08-01T02:20:22;16.50;99.90
31809;DHT22;18379;48.208;-1.518;2023-08-01T02:25:22;16.40;99.90
31809;DHT22;18379;48.208;-1.518;2023-08-01T02:30:24;16.40;99.90
31809;DHT22;18379;48.208;-1.518;2023-08-01T02:35:24;16.30;99.90
31809;DHT22;18379;48.208;-1.518;2023-08-01T02:40:25;16.20;99.90
31809;DHT22;18379;48.208;-1.518;2023-08-01T02:45:27;16.10;99.90
31809;DHT22;18379;48.208;-1.518;2023-08-01T02:50:28;15.90;99.90
31809;DHT22;18379;48.208;-1.518;2023-08-01T02:55:28;16.00;99.90
31809;DHT22;18379;48.208;-1.518;2023-08-01T03:00:29;16.00;99.90
31809;DHT22;18379;48.208;-1.518;2023-08-01T03:05:32;15.90;99.90
31809;DHT22;18379;48.208;-1.518;2023-08-01T03:10:35;15.90;99.90
31809;DHT22;18379;48.208;-1.518;2023-08-01T03:15:37;16.00;99.90
31809;DHT22;18379;48.208;-1.518;2023-08-01T03:20:38;15.90;99.90
31809;DHT22;18379;48.208;-1.518;2023-08-01T03:25:38;15.90;99.90
31809;DHT22;18379;48.208;-1.518;2023-08-01T03:30:39;15.80;99.90
31809;DHT22;18379;48.208;-1.518;2023-08-01T03:35:40;15.80;99.90
31809;DHT22;18379;48.208;-1.518;2023-08-01T03:40:41;15.70;99.90
31809;DHT22;18379;48.208;-1.518;2023-08-01T03:45:41;15.70;99.90
31809;DHT22;18379;48.208;-1.518;2023-08-01T03:50:42;15.60;99.90
31809;DHT22;18379;48.208;-1.518;2023-08-01T03:55:44;15.60;99.90
31809;DHT22;18379;48.208;-1.518;2023-08-01T04:00:45;15.60;99.90
31809;DHT22;18379;48.208;-1.518;2023-08-01T04:05:46;15.70;99.90
31809;DHT22;18379;48.208;-1.518;2023-08-01T04:10:46;15.70;99.90
31809;DHT22;18379;48.208;-1.518;2023-08-01T04:15:48;15.70;99.90
31809;DHT22;18379;48.208;-1.518;2023-08-01T04:20:49;15.60;99.90
31809;DHT22;18379;48.208;-1.518;2023-08-01T04:25:49;15.50;99.90
31809;DHT22;18379;48.208;-1.518;2023-08-01T04:30:51;15.50;99.90
31809;DHT22;18379;48.208;-1.518;2023-08-01T04:35:52;15.50;99.90
31809;DHT22;18379;48.208;-1.518;2023-08-01T04:40:53;15.60;99.90
31809;DHT22;18379;48.208;-1.518;2023-08-01T04:45:53;15.60;99.90
31809;DHT22;18379;48.208;-1.518;2023-08-01T04:50:54;15.60;99.90
31809;DHT22;18379;48.208;-1.518;2023-08-01T04:55:55;15.80;99.90
31809;DHT22;18379;48.208;-1.518;2023-08-01T05:00:56;15.80;99.90
31809;DHT22;18379;48.208;-1.518;2023-08-01T05:05:57;15.80;99.90
31809;DHT22;18379;48.208;-1.518;2023-08-01T05:10:57;15.80;99.90
31809;DHT22;18379;48.208;-1.518;2023-08-01T05:15:58;15.70;99.90
31809;DHT22;18379;48.208;-1.518;2023-08-01T05:20:59;15.50;99.90
31809;DHT22;18379;48.208;-1.518;2023-08-01T05:26:00;15.50;99.90
31809;DHT22;18379;48.208;-1.518;2023-08-01T05:31:00;15.40;99.90
31809;DHT22;18379;48.208;-1.518;2023-08-01T05:36:01;15.50;99.90
31809;DHT22;18379;48.208;-1.518;2023-08-01T05:41:02;15.50;99.90
31809;DHT22;18379;48.208;-1.518;2023-08-01T05:46:03;15.50;99.90
31809;DHT22;18379;48.208;-1.518;2023-08-01T05:51:04;15.70;99.90
31809;DHT22;18379;48.208;-1.518;2023-08-01T05:56:05;15.90;99.90
31809;DHT22;18379;48.208;-1.518;2023-08-01T06:01:06;16.00;99.90
31809;DHT22;18379;48.208;-1.518;2023-08-01T06:06:07;16.10;99.90
31809;DHT22;18379;48.208;-1.518;2023-08-01T06:11:08;16.20;99.90
31809;DHT22;18379;48.208;-1.518;2023-08-01T06:16:09;16.20;99.90
31809;DHT22;18379;48.208;-1.518;2023-08-01T06:21:10;16.10;99.90
31809;DHT22;18379;48.208;-1.518;2023-08-01T06:26:11;16.20;99.90
31809;DHT22;18379;48.208;-1.518;2023-08-01T06:31:11;16.20;99.90
31809;DHT22;18379;48.208;-1.518;2023-08-01T06:36:12;16.30;99.90
31809;DHT22;18379;48.208;-1.518;2023-08-01T06:41:14;16.40;99.90
31809;DHT22;18379;48.208;-1.518;2023-08-01T06:46:14;16.40;99.90
31809;DHT22;18379;48.208;-1.518;2023-08-01T06:51:15;16.50;99.90
31809;DHT22;18379;48.208;-1.518;2023-08-01T06:56:16;16.40;99.90
31809;DHT22;18379;48.208;-1.518;2023-08-01T07:01:17;16.50;99.90
31809;DHT22;18379;48.208;-1.518;2023-08-01T07:06:18;16.60;99.90
31809;DHT22;18379;48.208;-1.518;2023-08-01T07:11:19;16.80;99.90
31809;DHT22;18379;48.208;-1.518;2023-08-01T07:16:19;16.80;99.90
31809;DHT22;18379;48.208;-1.518;2023-08-01T07:21:20;16.80;99.90
31809;DHT22;18379;48.208;-1.518;2023-08-01T07:26:21;17.20;99.90
31809;DHT22;18379;48.208;-1.518;2023-08-01T07:31:22;17.20;99.90
31809;DHT22;18379;48.208;-1.518;2023-08-01T07:36:23;17.10;99.90
31809;DHT22;18379;48.208;-1.518;2023-08-01T07:41:24;17.20;99.90
31809;DHT22;18379;48.208;-1.518;2023-08-01T07:46:24;17.30;99.90
31809;DHT22;18379;48.208;-1.518;2023-08-01T07:51:27;17.40;99.90
31809;DHT22;18379;48.208;-1.518;2023-08-01T07:56:29;17.70;99.90
31809;DHT22;18379;48.208;-1.518;2023-08-01T08:01:30;18.00;99.90
31809;DHT22;18379;48.208;-1.518;2023-08-01T08:06:31;18.00;99.90
31809;DHT22;18379;48.208;-1.518;2023-08-01T08:11:32;17.80;99.90
31809;DHT22;18379;48.208;-1.518;2023-08-01T08:16:34;18.00;99.90
31809;DHT22;18379;48.208;-1.518;2023-08-01T08:21:34;18.00;99.90
31809;DHT22;18379;48.208;-1.518;2023-08-01T08:26:36;17.80;99.90
31809;DHT22;18379;48.208;-1.518;2023-08-01T08:31:38;18.10;99.90
31809;DHT22;18379;48.208;-1.518;2023-08-01T08:36:38;18.00;99.90
31809;DHT22;18379;48.208;-1.518;2023-08-01T08:41:47;18.20;99.90
31809;DHT22;18379;48.208;-1.518;2023-08-01T08:46:53;18.70;99.90
31809;DHT22;18379;48.208;-1.518;2023-08-01T08:51:54;18.50;99.90
31809;DHT22;18379;48.208;-1.518;2023-08-01T08:56:55;18.40;99.90
31809;DHT22;18379;48.208;-1.518;2023-08-01T09:01:56;18.30;99.90
31809;DHT22;18379;48.208;-1.518;2023-08-01T09:07:08;18.50;99.90
31809;DHT22;18379;48.208;-1.518;2023-08-01T09:12:09;18.60;99.90
31809;DHT22;18379;48.208;-1.518;2023-08-01T09:17:10;18.50;99.90
31809;DHT22;18379;48.208;-1.518;2023-08-01T09:22:12;18.40;99.90
31809;DHT22;18379;48.208;-1.518;2023-08-01T09:27:13;18.30;99.90
31809;DHT22;18379;48.208;-1.518;2023-08-01T09:32:14;18.20;99.90
31809;DHT22;18379;48.208;-1.518;2023-08-01T09:37:15;18.20;99.90
31809;DHT22;18379;48.208;-1.518;2023-08-01T09:42:16;18.10;99.90
31809;DHT22;18379;48.208;-1.518;2023-08-01T09:47:17;18.40;99.90
31809;DHT22;18379;48.208;-1.518;2023-08-01T09:52:29;18.60;99.90
31809;DHT22;18379;48.208;-1.518;2023-08-01T09:57:31;18.90;99.90
31809;DHT22;18379;48.208;-1.518;2023-08-01T10:02:32;18.80;99.90
31809;DHT22;18379;48.208;-1.518;2023-08-01T10:07:34;18.90;99.90
31809;DHT22;18379;48.208;-1.518;2023-08-01T10:12:37;19.10;99.90
31809;DHT22;18379;48.208;-1.518;2023-08-01T10:17:39;19.20;99.90
31809;DHT22;18379;48.208;-1.518;2023-08-01T10:22:41;19.30;99.90
31809;DHT22;18379;48.208;-1.518;2023-08-01T10:27:42;19.30;99.90
31809;DHT22;18379;48.208;-1.518;2023-08-01T10:32:43;19.40;99.90
31809;DHT22;18379;48.208;-1.518;2023-08-01T10:37:44;19.50;99.90
31809;DHT22;18379;48.208;-1.518;2023-08-01T10:42:48;19.90;99.90
31809;DHT22;18379;48.208;-1.518;2023-08-01T10:47:51;20.40;99.90
31809;DHT22;18379;48.208;-1.518;2023-08-01T10:53:05;20.90;99.90
31809;DHT22;18379;48.208;-1.518;2023-08-01T10:58:07;21.10;99.90
31809;DHT22;18379;48.208;-1.518;2023-08-01T11:03:08;20.90;99.90
31809;DHT22;18379;48.208;-1.518;2023-08-01T11:08:09;20.80;99.90
31809;DHT22;18379;48.208;-1.518;2023-08-01T11:13:11;20.50;99.90
31809;DHT22;18379;48.208;-1.518;2023-08-01T11:18:12;20.40;99.90
31809;DHT22;18379;48.208;-1.518;2023-08-01T11:23:12;20.70;99.90
31809;DHT22;18379;48.208;-1.518;2023-08-01T11:28:16;21.00;99.90
31809;DHT22;18379;48.208;-1.518;2023-08-01T11:33:24;21.00;99.90
31809;DHT22;18379;48.208;-1.518;2023-08-01T11:38:26;21.20;99.90
31809;DHT22;18379;48.208;-1.518;2023-08-01T11:43:42;21.30;99.90
31809;DHT22;18379;48.208;-1.518;2023-08-01T11:48:47;21.30;99.90
31809;DHT22;18379;48.208;-1.518;2023-08-01T11:54:01;21.20;99.90
31809;DHT22;18379;48.208;-1.518;2023-08-01T11:59:13;20.90;99.90
31809;DHT22;18379;48.208;-1.518;2023-08-01T12:04:27;20.40;99.90
31809;DHT22;18379;48.208;-1.518;2023-08-01T12:09:31;20.50;99.90
31809;DHT22;18379;48.208;-1.518;2023-08-01T12:14:33;20.80;99.90
31809;DHT22;18379;48.208;-1.518;2023-08-01T12:19:33;20.70;99.90
31809;DHT22;18379;48.208;-1.518;2023-08-01T12:24:34;20.40;99.90
31809;DHT22;18379;48.208;-1.518;2023-08-01T12:29:37;20.70;99.90
31809;DHT22;18379;48.208;-1.518;2023-08-01T12:34:38;20.80;99.90
31809;DHT22;18379;48.208;-1.518;2023-08-01T12:39:39;20.60;99.90
31809;DHT22;18379;48.208;-1.518;2023-08-01T12:44:40;20.60;99.90
31809;DHT22;18379;48.208;-1.518;2023-08-01T12:49:40;20.70;99.90
31809;DHT22;18379;48.208;-1.518;2023-08-01T12:54:41;20.50;99.90
31809;DHT22;18379;48.208;-1.518;2023-08-01T12:59:42;20.30;99.90
31809;DHT22;18379;48.208;-1.518;2023-08-01T13:04:43;20.30;99.90
31809;DHT22;18379;48.208;-1.518;2023-08-01T13:09:44;20.20;99.90
31809;DHT22;18379;48.208;-1.518;2023-08-01T13:14:44;20.20;99.90
31809;DHT22;18379;48.208;-1.518;2023-08-01T13:19:45;20.00;99.90
31809;DHT22;18379;48.208;-1.518;2023-08-01T13:24:46;20.00;99.90
31809;DHT22;18379;48.208;-1.518;2023-08-01T13:29:48;19.90;99.90
31809;DHT22;18379;48.208;-1.518;2023-08-01T13:34:51;19.70;99.90
31809;DHT22;18379;48.208;-1.518;2023-08-01T13:39:52;19.70;99.90
31809;DHT22;18379;48.208;-1.518;2023-08-01T13:44:56;19.70;99.90
31809;DHT22;18379;48.208;-1.518;2023-08-01T13:49:57;19.70;99.90
31809;DHT22;18379;48.208;-1.518;2023-08-01T13:54:57;19.80;99.90
31809;DHT22;18379;48.208;-1.518;2023-08-01T13:59:58;20.00;99.90
31809;DHT22;18379;48.208;-1.518;2023-08-01T14:04:59;19.90;99.90
31809;DHT22;18379;48.208;-1.518;2023-08-01T14:10:00;19.90;99.90
31809;DHT22;18379;48.208;-1.518;2023-08-01T14:15:00;19.80;99.90
31809;DHT22;18379;48.208;-1.518;2023-08-01T14:20:02;19.70;99.90
31809;DHT22;18379;48.208;-1.518;2023-08-01T14:25:06;19.60;99.90
31809;DHT22;18379;48.208;-1.518;2023-08-01T14:30:07;19.40;99.90
31809;DHT22;18379;48.208;-1.518;2023-08-01T14:35:08;19.40;99.90
31809;DHT22;18379;48.208;-1.518;2023-08-01T14:40:11;19.50;99.90
31809;DHT22;18379;48.208;-1.518;2023-08-01T14:45:12;19.40;99.90
31809;DHT22;18379;48.208;-1.518;2023-08-01T14:50:15;19.20;99.90
31809;DHT22;18379;48.208;-1.518;2023-08-01T14:55:15;19.00;99.90
31809;DHT22;18379;48.208;-1.518;2023-08-01T15:00:16;18.80;99.90
31809;DHT22;18379;48.208;-1.518;2023-08-01T15:05:17;18.80;99.90
31809;DHT22;18379;48.208;-1.518;2023-08-01T15:10:18;18.80;99.90
31809;DHT22;18379;48.208;-1.518;2023-08-01T15:15:19;18.90;99.90
31809;DHT22;18379;48.208;-1.518;2023-08-01T15:20:20;18.80;99.90
31809;DHT22;18379;48.208;-1.518;2023-08-01T15:25:20;18.90;99.90
31809;DHT22;18379;48.208;-1.518;2023-08-01T15:30:21;18.90;99.90
31809;DHT22;18379;48.208;-1.518;2023-08-01T15:35:28;19.00;99.90
31809;DHT22;18379;48.208;-1.518;2023-08-01T15:40:30;19.00;99.90
31809;DHT22;18379;48.208;-1.518;2023-08-01T15:45:31;19.00;99.90
31809;DHT22;18379;48.208;-1.518;2023-08-01T15:50:31;18.80;99.90
31809;DHT22;18379;48.208;-1.518;2023-08-01T15:55:32;18.70;99.90
31809;DHT22;18379;48.208;-1.518;2023-08-01T16:00:33;18.70;99.90
31809;DHT22;18379;48.208;-1.518;2023-08-01T16:05:34;18.80;99.90
31809;DHT22;18379;48.208;-1.518;2023-08-01T16:10:35;18.80;99.90
31809;DHT22;18379;48.208;-1.518;2023-08-01T16:15:37;18.70;99.90
31809;DHT22;18379;48.208;-1.518;2023-08-01T16:20:38;18.70;99.90
31809;DHT22;18379;48.208;-1.518;2023-08-01T16:25:39;18.50;99.90
31809;DHT22;18379;48.208;-1.518;2023-08-01T16:30:40;18.60;99.90
31809;DHT22;18379;48.208;-1.518;2023-08-01T16:35:40;18.60;99.90
31809;DHT22;18379;48.208;-1.518;2023-08-01T16:40:41;18.60;99.90
31809;DHT22;18379;48.208;-1.518;2023-08-01T16:45:42;18.60;99.90
31809;DHT22;18379;48.208;-1.518;2023-08-01T16:50:43;18.50;99.90
31809;DHT22;18379;48.208;-1.518;2023-08-01T16:55:44;18.40;99.90
31809;DHT22;18379;48.208;-1.518;2023-08-01T17:00:45;18.30;99.90
31809;DHT22;18379;48.208;-1.518;2023-08-01T17:05:46;18.40;99.90
31809;DHT22;18379;48.208;-1.518;2023-08-01T17:10:48;18.20;99.90
31809;DHT22;18379;48.208;-1.518;2023-08-01T17:15:49;18.10;99.90
31809;DHT22;18379;48.208;-1.518;2023-08-01T17:20:50;18.10;99.90
31809;DHT22;18379;48.208;-1.518;2023-08-01T17:25:52;18.00;99.90
31809;DHT22;18379;48.208;-1.518;2023-08-01T17:30:53;18.00;99.90
31809;DHT22;18379;48.208;-1.518;2023-08-01T17:35:53;18.00;99.90
31809;DHT22;18379;48.208;-1.518;2023-08-01T17:40:54;18.00;99.90
31809;DHT22;18379;48.208;-1.518;2023-08-01T17:45:55;17.90;99.90
31809;DHT22;18379;48.208;-1.518;2023-08-01T17:50:56;17.90;99.90
31809;DHT22;18379;48.208;-1.518;2023-08-01T17:55:57;17.70;99.90
31809;DHT22;18379;48.208;-1.518;2023-08-01T18:00:58;17.70;99.90
31809;DHT22;18379;48.208;-1.518;2023-08-01T18:06:06;17.80;99.90
31809;DHT22;18379;48.208;-1.518;2023-08-01T18:11:12;17.70;99.90
31809;DHT22;18379;48.208;-1.518;2023-08-01T18:16:24;17.70;99.90
31809;DHT22;18379;48.208;-1.518;2023-08-01T18:21:25;17.70;99.90
31809;DHT22;18379;48.208;-1.518;2023-08-01T18:26:26;17.60;99.90
31809;DHT22;18379;48.208;-1.518;2023-08-01T18:31:27;17.70;99.90
31809;DHT22;18379;48.208;-1.518;2023-08-01T18:36:28;17.50;99.90
31809;DHT22;18379;48.208;-1.518;2023-08-01T18:41:29;17.40;99.90
31809;DHT22;18379;48.208;-1.518;2023-08-01T18:46:30;17.40;99.90
31809;DHT22;18379;48.208;-1.518;2023-08-01T18:51:30;17.30;99.90
31809;DHT22;18379;48.208;-1.518;2023-08-01T18:56:32;17.20;99.90
31809;DHT22;18379;48.208;-1.518;2023-08-01T19:01:33;17.20;99.90
31809;DHT22;18379;48.208;-1.518;2023-08-01T19:06:34;17.20;99.90
31809;DHT22;18379;48.208;-1.518;2023-08-01T19:11:35;17.20;99.90
31809;DHT22;18379;48.208;-1.518;2023-08-01T19:16:36;17.10;99.90
31809;DHT22;18379;48.208;-1.518;2023-08-01T19:21:37;17.10;99.90
31809;DHT22;18379;48.208;-1.518;2023-08-01T19:26:37;17.20;99.90
31809;DHT22;18379;48.208;-1.518;2023-08-01T19:31:39;17.10;99.90
31809;DHT22;18379;48.208;-1.518;2023-08-01T19:36:40;17.20;99.90
31809;DHT22;18379;48.208;-1.518;2023-08-01T19:41:40;17.20;99.90
31809;DHT22;18379;48.208;-1.518;2023-08-01T19:46:41;17.20;99.90
31809;DHT22;18379;48.208;-1.518;2023-08-01T19:51:42;17.20;99.90
31809;DHT22;18379;48.208;-1.518;2023-08-01T19:56:43;17.20;99.90
31809;DHT22;18379;48.208;-1.518;2023-08-01T20:01:44;17.20;99.90
31809;DHT22;18379;48.208;-1.518;2023-08-01T20:06:45;17.10;99.90
31809;DHT22;18379;48.208;-1.518;2023-08-01T20:11:45;17.10;99.90
31809;DHT22;18379;48.208;-1.518;2023-08-01T20:16:46;17.20;99.90
31809;DHT22;18379;48.208;-1.518;2023-08-01T20:21:47;17.20;99.90
31809;DHT22;18379;48.208;-1.518;2023-08-01T20:26:49;17.20;99.90
31809;DHT22;18379;48.208;-1.518;2023-08-01T20:31:49;17.20;99.90
31809;DHT22;18379;48.208;-1.518;2023-08-01T20:36:50;17.20;99.90
31809;DHT22;18379;48.208;-1.518;2023-08-01T20:41:51;17.10;99.90
31809;DHT22;18379;48.208;-1.518;2023-08-01T20:46:52;17.10;99.90
31809;DHT22;18379;48.208;-1.518;2023-08-01T20:51:53;17.10;99.90
31809;DHT22;18379;48.208;-1.518;2023-08-01T20:56:58;17.20;99.90
31809;DHT22;18379;48.208;-1.518;2023-08-01T21:01:59;17.10;99.90
31809;DHT22;18379;48.208;-1.518;2023-08-01T21:07:00;17.10;99.90
31809;DHT22;18379;48.208;-1.518;2023-08-01T21:12:01;17.20;99.90
31809;DHT22;18379;48.208;-1.518;2023-08-01T21:17:02;17.20;99.90
31809;DHT22;18379;48.208;-1.518;2023-08-01T21:22:03;17.20;99.90
31809;DHT22;18379;48.208;-1.518;2023-08-01T21:27:04;17.30;99.90
31809;DHT22;18379;48.208;-1.518;2023-08-01T21:32:05;17.40;99.90
31809;DHT22;18379;48.208;-1.518;2023-08-01T21:37:06;17.50;99.90
31809;DHT22;18379;48.208;-1.518;2023-08-01T21:42:06;17.50;99.90
31809;DHT22;18379;48.208;-1.518;2023-08-01T21:47:08;17.60;99.90
31809;DHT22;18379;48.208;-1.518;2023-08-01T21:52:09;17.60;99.90
31809;DHT22;18379;48.208;-1.518;2023-08-01T21:57:10;17.70;99.90
31809;DHT22;18379;48.208;-1.518;2023-08-01T22:02:11;17.80;99.90
31809;DHT22;18379;48.208;-1.518;2023-08-01T22:07:12;17.90;99.90
31809;DHT22;18379;48.208;-1.518;2023-08-01T22:12:12;17.90;99.90
31809;DHT22;18379;48.208;-1.518;2023-08-01T22:17:13;17.90;99.90
31809;DHT22;18379;48.208;-1.518;2023-08-01T22:22:14;17.90;99.90
31809;DHT22;18379;48.208;-1.518;2023-08-01T22:27:15;18.00;99.90
31809;DHT22;18379;48.208;-1.518;2023-08-01T22:32:16;18.10;99.90
31809;DHT22;18379;48.208;-1.518;2023-08-01T22:37:16;18.10;99.90
31809;DHT22;18379;48.208;-1.518;2023-08-01T22:42:17;18.10;99.90
31809;DHT22;18379;48.208;-1.518;2023-08-01T22:47:18;18.20;99.90
31809;DHT22;18379;48.208;-1.518;2023-08-01T22:52:18;18.20;99.90
31809;DHT22;18379;48.208;-1.518;2023-08-01T22:57:19;18.30;99.90
31809;DHT22;18379;48.208;-1.518;2023-08-01T23:02:20;18.30;99.90
31809;DHT22;18379;48.208;-1.518;2023-08-01T23:07:22;18.30;99.90
31809;DHT22;18379;48.208;-1.518;2023-08-01T23:12:23;18.40;99.90
31809;DHT22;18379;48.208;-1.518;2023-08-01T23:17:30;18.50;99.90
31809;DHT22;18379;48.208;-1.518;2023-08-01T23:22:32;18.50;99.90
31809;DHT22;18379;48.208;-1.518;2023-08-01T23:27:33;18.60;99.90
31809;DHT22;18379;48.208;-1.518;2023-08-01T23:32:34;18.60;99.90
31809;DHT22;18379;48.208;-1.518;2023-08-01T23:37:35;18.70;99.90
31809;DHT22;18379;48.208;-1.518;2023-08-01T23:42:36;18.70;99.90
31809;DHT22;18379;48.208;-1.518;2023-08-01T23:47:36;18.70;99.90
31809;DHT22;18379;48.208;-1.518;2023-08-01T23:52:37;18.80;99.90
31809;DHT22;18379;48.208;-1.518;2023-08-01T23:57:38;18.80;99.90
